sensor_id;sensor_type;location;lat;lon;timestamp;P1;durP1;ratioP1;P2;durP2;ratioP2
1320;SDS011;653;51.480;11.992;2023-03-04T00:02:14;23.27;;;12.20;;
1320;SDS011;653;51.480;11.992;2023-03-04T00:04:39;32.30;;;14.97;;
1320;SDS011;653;51.480;11.992;2023-03-04T00:07:06;26.03;;;13.23;;
1320;SDS011;653;51.480;11.992;2023-03-04T00:09:32;25.17;;;13.90;;
1320;SDS011;653;51.480;11.992;2023-03-04T00:11:58;28.80;;;15.33;;
1320;SDS011;653;51.480;11.992;2023-03-04T00:14:26;27.40;;;13.50;;
1320;SDS011;653;51.480;11.992;2023-03-04T00:16:53;29.30;;;15.40;;
1320;SDS011;653;51.480;11.992;2023-03-04T00:19:20;30.50;;;16.00;;
1320;SDS011;653;51.480;11.992;2023-03-04T00:21:47;24.40;;;13.57;;
1320;SDS011;653;51.480;11.992;2023-03-04T00:24:13;27.20;;;14.27;;
1320;SDS011;653;51.480;11.992;2023-03-04T00:26:40;29.33;;;16.00;;
1320;SDS011;653;51.480;11.992;2023-03-04T00:29:06;26.47;;;13.90;;
1320;SDS011;653;51.480;11.992;2023-03-04T00:31:33;27.40;;;15.17;;
1320;SDS011;653;51.480;11.992;2023-03-04T00:33:58;27.53;;;14.27;;
1320;SDS011;653;51.480;11.992;2023-03-04T00:36:24;29.37;;;15.57;;
1320;SDS011;653;51.480;11.992;2023-03-04T00:38:50;20.80;;;12.20;;
1320;SDS011;653;51.480;11.992;2023-03-04T00:41:17;29.63;;;16.53;;
1320;SDS011;653;51.480;11.992;2023-03-04T00:43:42;31.17;;;16.90;;
1320;SDS011;653;51.480;11.992;2023-03-04T00:46:08;22.47;;;13.07;;
1320;SDS011;653;51.480;11.992;2023-03-04T00:48:35;25.47;;;15.57;;
1320;SDS011;653;51.480;11.992;2023-03-04T00:51:04;28.23;;;14.57;;
1320;SDS011;653;51.480;11.992;2023-03-04T00:53:31;24.40;;;15.30;;
1320;SDS011;653;51.480;11.992;2023-03-04T00:55:58;27.50;;;12.17;;
1320;SDS011;653;51.480;11.992;2023-03-04T00:58:24;29.80;;;16.40;;
1320;SDS011;653;51.480;11.992;2023-03-04T01:00:51;28.40;;;14.77;;
1320;SDS011;653;51.480;11.992;2023-03-04T01:03:18;26.60;;;15.13;;
1320;SDS011;653;51.480;11.992;2023-03-04T01:05:44;25.73;;;14.60;;
1320;SDS011;653;51.480;11.992;2023-03-04T01:08:10;35.07;;;17.87;;
1320;SDS011;653;51.480;11.992;2023-03-04T01:10:36;24.97;;;14.03;;
1320;SDS011;653;51.480;11.992;2023-03-04T01:13:03;24.33;;;13.47;;
1320;SDS011;653;51.480;11.992;2023-03-04T01:15:31;33.83;;;15.80;;
1320;SDS011;653;51.480;11.992;2023-03-04T01:17:57;26.97;;;14.60;;
1320;SDS011;653;51.480;11.992;2023-03-04T01:20:24;31.33;;;15.50;;
1320;SDS011;653;51.480;11.992;2023-03-04T01:22:49;28.43;;;15.67;;
1320;SDS011;653;51.480;11.992;2023-03-04T01:25:16;31.07;;;18.40;;
1320;SDS011;653;51.480;11.992;2023-03-04T01:27:43;30.07;;;16.10;;
1320;SDS011;653;51.480;11.992;2023-03-04T01:30:10;32.53;;;17.00;;
1320;SDS011;653;51.480;11.992;2023-03-04T01:32:37;26.83;;;16.80;;
1320;SDS011;653;51.480;11.992;2023-03-04T01:35:04;32.20;;;18.23;;
1320;SDS011;653;51.480;11.992;2023-03-04T01:37:30;25.77;;;13.50;;
1320;SDS011;653;51.480;11.992;2023-03-04T01:39:57;28.40;;;16.23;;
1320;SDS011;653;51.480;11.992;2023-03-04T01:42:23;23.90;;;15.37;;
1320;SDS011;653;51.480;11.992;2023-03-04T01:44:51;25.73;;;15.07;;
1320;SDS011;653;51.480;11.992;2023-03-04T01:47:19;34.93;;;18.73;;
1320;SDS011;653;51.480;11.992;2023-03-04T01:49:54;29.83;;;15.43;;
1320;SDS011;653;51.480;11.992;2023-03-04T01:52:22;23.40;;;11.80;;
1320;SDS011;653;51.480;11.992;2023-03-04T01:54:49;29.27;;;16.13;;
1320;SDS011;653;51.480;11.992;2023-03-04T01:57:17;29.93;;;16.57;;
1320;SDS011;653;51.480;11.992;2023-03-04T01:59:47;34.73;;;16.57;;
1320;SDS011;653;51.480;11.992;2023-03-04T02:02:52;31.30;;;16.97;;
1320;SDS011;653;51.480;11.992;2023-03-04T02:05:20;30.67;;;15.90;;
1320;SDS011;653;51.480;11.992;2023-03-04T02:07:46;39.60;;;17.03;;
1320;SDS011;653;51.480;11.992;2023-03-04T02:10:13;26.23;;;15.60;;
1320;SDS011;653;51.480;11.992;2023-03-04T02:12:40;29.70;;;14.90;;
1320;SDS011;653;51.480;11.992;2023-03-04T02:15:06;40.33;;;16.20;;
1320;SDS011;653;51.480;11.992;2023-03-04T02:17:33;31.17;;;15.53;;
1320;SDS011;653;51.480;11.992;2023-03-04T02:20:18;29.50;;;15.90;;
1320;SDS011;653;51.480;11.992;2023-03-04T02:23:23;25.13;;;15.37;;
1320;SDS011;653;51.480;11.992;2023-03-04T02:28:38;32.00;;;16.00;;
1320;SDS011;653;51.480;11.992;2023-03-04T02:31:05;33.00;;;17.40;;
1320;SDS011;653;51.480;11.992;2023-03-04T02:33:31;32.07;;;15.67;;
1320;SDS011;653;51.480;11.992;2023-03-04T02:35:58;29.60;;;17.13;;
1320;SDS011;653;51.480;11.992;2023-03-04T02:38:24;28.30;;;15.80;;
1320;SDS011;653;51.480;11.992;2023-03-04T02:40:50;32.27;;;16.93;;
1320;SDS011;653;51.480;11.992;2023-03-04T02:43:17;31.30;;;17.03;;
1320;SDS011;653;51.480;11.992;2023-03-04T02:45:45;30.77;;;16.10;;
1320;SDS011;653;51.480;11.992;2023-03-04T02:48:14;31.53;;;17.00;;
1320;SDS011;653;51.480;11.992;2023-03-04T02:50:46;30.07;;;16.97;;
1320;SDS011;653;51.480;11.992;2023-03-04T02:53:17;26.73;;;15.87;;
1320;SDS011;653;51.480;11.992;2023-03-04T02:55:59;38.00;;;19.57;;
1320;SDS011;653;51.480;11.992;2023-03-04T02:58:26;33.40;;;17.17;;
1320;SDS011;653;51.480;11.992;2023-03-04T03:00:53;33.77;;;17.17;;
1320;SDS011;653;51.480;11.992;2023-03-04T03:03:20;29.40;;;14.50;;
1320;SDS011;653;51.480;11.992;2023-03-04T03:05:47;29.33;;;15.87;;
1320;SDS011;653;51.480;11.992;2023-03-04T03:08:13;29.87;;;16.60;;
1320;SDS011;653;51.480;11.992;2023-03-04T03:10:39;26.90;;;15.80;;
1320;SDS011;653;51.480;11.992;2023-03-04T03:13:05;26.97;;;15.60;;
1320;SDS011;653;51.480;11.992;2023-03-04T03:15:32;29.60;;;14.93;;
1320;SDS011;653;51.480;11.992;2023-03-04T03:17:59;26.63;;;15.33;;
1320;SDS011;653;51.480;11.992;2023-03-04T03:20:24;26.23;;;15.53;;
1320;SDS011;653;51.480;11.992;2023-03-04T03:22:50;24.70;;;14.80;;
1320;SDS011;653;51.480;11.992;2023-03-04T03:25:17;26.67;;;15.33;;
1320;SDS011;653;51.480;11.992;2023-03-04T03:27:45;25.57;;;15.90;;
1320;SDS011;653;51.480;11.992;2023-03-04T03:30:13;27.80;;;15.00;;
1320;SDS011;653;51.480;11.992;2023-03-04T03:32:41;24.37;;;14.17;;
1320;SDS011;653;51.480;11.992;2023-03-04T03:35:08;23.43;;;14.20;;
1320;SDS011;653;51.480;11.992;2023-03-04T03:37:34;25.33;;;13.03;;
1320;SDS011;653;51.480;11.992;2023-03-04T03:40:00;28.33;;;14.53;;
1320;SDS011;653;51.480;11.992;2023-03-04T03:42:27;33.47;;;14.17;;
1320;SDS011;653;51.480;11.992;2023-03-04T03:44:54;20.87;;;12.43;;
1320;SDS011;653;51.480;11.992;2023-03-04T03:47:21;34.77;;;15.57;;
1320;SDS011;653;51.480;11.992;2023-03-04T03:49:47;24.40;;;14.53;;
1320;SDS011;653;51.480;11.992;2023-03-04T03:52:14;33.37;;;15.00;;
1320;SDS011;653;51.480;11.992;2023-03-04T03:54:42;28.60;;;14.77;;
1320;SDS011;653;51.480;11.992;2023-03-04T03:57:08;25.47;;;14.27;;
1320;SDS011;653;51.480;11.992;2023-03-04T03:59:33;26.47;;;12.73;;
1320;SDS011;653;51.480;11.992;2023-03-04T04:02:00;26.40;;;13.50;;
1320;SDS011;653;51.480;11.992;2023-03-04T04:04:26;27.00;;;13.90;;
1320;SDS011;653;51.480;11.992;2023-03-04T04:06:53;27.23;;;13.17;;
1320;SDS011;653;51.480;11.992;2023-03-04T04:09:21;24.60;;;13.60;;
1320;SDS011;653;51.480;11.992;2023-03-04T04:11:48;29.07;;;13.77;;
1320;SDS011;653;51.480;11.992;2023-03-04T04:14:26;26.47;;;15.23;;
1320;SDS011;653;51.480;11.992;2023-03-04T04:16:52;24.83;;;13.67;;
1320;SDS011;653;51.480;11.992;2023-03-04T04:19:19;22.07;;;13.13;;
1320;SDS011;653;51.480;11.992;2023-03-04T04:21:46;28.10;;;12.40;;
1320;SDS011;653;51.480;11.992;2023-03-04T04:24:13;24.23;;;14.77;;
1320;SDS011;653;51.480;11.992;2023-03-04T04:26:40;24.77;;;11.93;;
1320;SDS011;653;51.480;11.992;2023-03-04T04:29:08;27.83;;;13.40;;
1320;SDS011;653;51.480;11.992;2023-03-04T04:31:37;23.53;;;12.60;;
1320;SDS011;653;51.480;11.992;2023-03-04T04:34:07;24.53;;;13.20;;
1320;SDS011;653;51.480;11.992;2023-03-04T04:36:34;29.33;;;13.63;;
1320;SDS011;653;51.480;11.992;2023-03-04T04:39:01;24.10;;;12.73;;
1320;SDS011;653;51.480;11.992;2023-03-04T04:41:29;21.10;;;11.70;;
1320;SDS011;653;51.480;11.992;2023-03-04T04:43:58;21.93;;;10.90;;
1320;SDS011;653;51.480;11.992;2023-03-04T04:46:25;22.43;;;12.77;;
1320;SDS011;653;51.480;11.992;2023-03-04T04:48:52;21.73;;;11.30;;
1320;SDS011;653;51.480;11.992;2023-03-04T04:51:18;25.40;;;13.57;;
1320;SDS011;653;51.480;11.992;2023-03-04T04:53:43;19.70;;;10.47;;
1320;SDS011;653;51.480;11.992;2023-03-04T04:56:13;19.77;;;10.83;;
1320;SDS011;653;51.480;11.992;2023-03-04T04:58:42;17.83;;;10.03;;
1320;SDS011;653;51.480;11.992;2023-03-04T05:01:09;20.97;;;10.20;;
1320;SDS011;653;51.480;11.992;2023-03-04T05:03:35;25.03;;;12.10;;
1320;SDS011;653;51.480;11.992;2023-03-04T05:06:02;20.53;;;10.60;;
1320;SDS011;653;51.480;11.992;2023-03-04T05:08:30;19.43;;;9.63;;
1320;SDS011;653;51.480;11.992;2023-03-04T05:10:57;25.30;;;11.50;;
1320;SDS011;653;51.480;11.992;2023-03-04T05:13:23;16.53;;;10.40;;
1320;SDS011;653;51.480;11.992;2023-03-04T05:15:54;27.43;;;11.77;;
1320;SDS011;653;51.480;11.992;2023-03-04T05:18:21;22.50;;;10.60;;
1320;SDS011;653;51.480;11.992;2023-03-04T05:20:51;18.93;;;10.17;;
1320;SDS011;653;51.480;11.992;2023-03-04T05:23:23;24.03;;;12.50;;
1320;SDS011;653;51.480;11.992;2023-03-04T05:25:49;24.40;;;10.40;;
1320;SDS011;653;51.480;11.992;2023-03-04T05:28:16;18.63;;;10.80;;
1320;SDS011;653;51.480;11.992;2023-03-04T05:30:42;22.47;;;11.60;;
1320;SDS011;653;51.480;11.992;2023-03-04T05:33:10;20.90;;;10.70;;
1320;SDS011;653;51.480;11.992;2023-03-04T05:35:37;23.90;;;12.23;;
1320;SDS011;653;51.480;11.992;2023-03-04T05:38:06;21.60;;;12.20;;
1320;SDS011;653;51.480;11.992;2023-03-04T05:40:35;25.40;;;10.90;;
1320;SDS011;653;51.480;11.992;2023-03-04T05:43:03;23.00;;;10.27;;
1320;SDS011;653;51.480;11.992;2023-03-04T05:45:29;22.90;;;12.87;;
1320;SDS011;653;51.480;11.992;2023-03-04T05:47:56;25.73;;;12.50;;
1320;SDS011;653;51.480;11.992;2023-03-04T05:50:21;20.30;;;11.00;;
1320;SDS011;653;51.480;11.992;2023-03-04T05:52:49;20.97;;;11.80;;
1320;SDS011;653;51.480;11.992;2023-03-04T05:55:16;23.87;;;12.40;;
1320;SDS011;653;51.480;11.992;2023-03-04T05:57:43;22.03;;;11.20;;
1320;SDS011;653;51.480;11.992;2023-03-04T06:00:10;22.87;;;12.07;;
1320;SDS011;653;51.480;11.992;2023-03-04T06:02:38;21.43;;;11.83;;
1320;SDS011;653;51.480;11.992;2023-03-04T06:05:05;22.87;;;12.33;;
1320;SDS011;653;51.480;11.992;2023-03-04T06:07:31;24.90;;;11.90;;
1320;SDS011;653;51.480;11.992;2023-03-04T06:09:57;25.17;;;12.03;;
1320;SDS011;653;51.480;11.992;2023-03-04T06:12:24;25.83;;;12.23;;
1320;SDS011;653;51.480;11.992;2023-03-04T06:14:51;18.80;;;11.13;;
1320;SDS011;653;51.480;11.992;2023-03-04T06:17:18;21.97;;;12.23;;
1320;SDS011;653;51.480;11.992;2023-03-04T06:19:43;22.90;;;10.43;;
1320;SDS011;653;51.480;11.992;2023-03-04T06:22:09;24.80;;;14.20;;
1320;SDS011;653;51.480;11.992;2023-03-04T06:24:36;23.87;;;12.70;;
1320;SDS011;653;51.480;11.992;2023-03-04T06:27:03;21.97;;;12.63;;
1320;SDS011;653;51.480;11.992;2023-03-04T06:29:29;25.07;;;12.40;;
1320;SDS011;653;51.480;11.992;2023-03-04T06:31:56;20.53;;;11.70;;
1320;SDS011;653;51.480;11.992;2023-03-04T06:34:22;30.50;;;13.43;;
1320;SDS011;653;51.480;11.992;2023-03-04T06:36:48;23.87;;;12.40;;
1320;SDS011;653;51.480;11.992;2023-03-04T06:39:15;21.40;;;12.93;;
1320;SDS011;653;51.480;11.992;2023-03-04T06:41:42;21.40;;;12.10;;
1320;SDS011;653;51.480;11.992;2023-03-04T06:44:08;29.20;;;12.87;;
1320;SDS011;653;51.480;11.992;2023-03-04T06:46:35;16.67;;;9.83;;
1320;SDS011;653;51.480;11.992;2023-03-04T06:49:02;23.37;;;12.53;;
1320;SDS011;653;51.480;11.992;2023-03-04T06:51:28;26.03;;;12.27;;
1320;SDS011;653;51.480;11.992;2023-03-04T06:53:55;19.67;;;13.50;;
1320;SDS011;653;51.480;11.992;2023-03-04T06:56:21;20.20;;;11.90;;
1320;SDS011;653;51.480;11.992;2023-03-04T06:58:47;19.23;;;11.00;;
1320;SDS011;653;51.480;11.992;2023-03-04T07:01:21;20.03;;;12.43;;
1320;SDS011;653;51.480;11.992;2023-03-04T07:03:51;20.30;;;10.67;;
1320;SDS011;653;51.480;11.992;2023-03-04T07:06:22;22.37;;;12.80;;
1320;SDS011;653;51.480;11.992;2023-03-04T07:08:50;23.40;;;11.20;;
1320;SDS011;653;51.480;11.992;2023-03-04T07:11:17;20.83;;;11.30;;
1320;SDS011;653;51.480;11.992;2023-03-04T07:13:43;23.80;;;11.83;;
1320;SDS011;653;51.480;11.992;2023-03-04T07:16:12;29.13;;;15.20;;
1320;SDS011;653;51.480;11.992;2023-03-04T07:18:40;22.50;;;11.33;;
1320;SDS011;653;51.480;11.992;2023-03-04T07:21:07;28.30;;;12.03;;
1320;SDS011;653;51.480;11.992;2023-03-04T07:23:34;22.17;;;10.43;;
1320;SDS011;653;51.480;11.992;2023-03-04T07:26:00;20.73;;;10.83;;
1320;SDS011;653;51.480;11.992;2023-03-04T07:28:26;19.40;;;10.70;;
1320;SDS011;653;51.480;11.992;2023-03-04T07:30:56;24.70;;;11.07;;
1320;SDS011;653;51.480;11.992;2023-03-04T07:33:23;18.37;;;9.93;;
1320;SDS011;653;51.480;11.992;2023-03-04T07:35:48;21.07;;;10.33;;
1320;SDS011;653;51.480;11.992;2023-03-04T07:38:23;18.57;;;11.97;;
1320;SDS011;653;51.480;11.992;2023-03-04T07:40:53;20.73;;;9.03;;
1320;SDS011;653;51.480;11.992;2023-03-04T07:43:22;14.07;;;8.50;;
1320;SDS011;653;51.480;11.992;2023-03-04T07:45:49;18.27;;;9.93;;
1320;SDS011;653;51.480;11.992;2023-03-04T07:48:15;16.23;;;9.67;;
1320;SDS011;653;51.480;11.992;2023-03-04T07:50:42;19.60;;;8.80;;
1320;SDS011;653;51.480;11.992;2023-03-04T07:53:08;14.43;;;9.17;;
1320;SDS011;653;51.480;11.992;2023-03-04T07:55:35;22.30;;;8.33;;
1320;SDS011;653;51.480;11.992;2023-03-04T07:58:02;17.13;;;8.27;;
1320;SDS011;653;51.480;11.992;2023-03-04T08:00:29;16.23;;;8.30;;
1320;SDS011;653;51.480;11.992;2023-03-04T08:02:54;18.47;;;7.60;;
1320;SDS011;653;51.480;11.992;2023-03-04T08:05:21;15.40;;;7.10;;
1320;SDS011;653;51.480;11.992;2023-03-04T08:07:47;14.07;;;7.50;;
1320;SDS011;653;51.480;11.992;2023-03-04T08:10:15;22.73;;;8.93;;
1320;SDS011;653;51.480;11.992;2023-03-04T08:12:42;14.13;;;6.90;;
1320;SDS011;653;51.480;11.992;2023-03-04T08:15:09;19.80;;;7.20;;
1320;SDS011;653;51.480;11.992;2023-03-04T08:17:36;13.80;;;6.77;;
1320;SDS011;653;51.480;11.992;2023-03-04T08:20:02;15.97;;;6.70;;
1320;SDS011;653;51.480;11.992;2023-03-04T08:22:29;13.70;;;6.27;;
1320;SDS011;653;51.480;11.992;2023-03-04T08:24:55;10.97;;;6.50;;
1320;SDS011;653;51.480;11.992;2023-03-04T08:27:24;15.50;;;7.90;;
1320;SDS011;653;51.480;11.992;2023-03-04T08:29:49;12.17;;;6.77;;
1320;SDS011;653;51.480;11.992;2023-03-04T08:32:15;11.90;;;5.83;;
1320;SDS011;653;51.480;11.992;2023-03-04T08:34:40;13.43;;;5.60;;
1320;SDS011;653;51.480;11.992;2023-03-04T08:37:06;13.53;;;5.17;;
1320;SDS011;653;51.480;11.992;2023-03-04T08:39:32;11.90;;;5.87;;
1320;SDS011;653;51.480;11.992;2023-03-04T08:42:01;12.87;;;6.50;;
1320;SDS011;653;51.480;11.992;2023-03-04T08:44:27;15.87;;;6.67;;
1320;SDS011;653;51.480;11.992;2023-03-04T08:46:54;12.47;;;5.50;;
1320;SDS011;653;51.480;11.992;2023-03-04T08:49:19;16.83;;;5.43;;
1320;SDS011;653;51.480;11.992;2023-03-04T08:51:45;15.07;;;6.10;;
1320;SDS011;653;51.480;11.992;2023-03-04T08:54:11;10.53;;;5.73;;
1320;SDS011;653;51.480;11.992;2023-03-04T08:56:39;9.83;;;5.40;;
1320;SDS011;653;51.480;11.992;2023-03-04T08:59:06;8.73;;;5.03;;
1320;SDS011;653;51.480;11.992;2023-03-04T09:01:33;9.17;;;5.43;;
1320;SDS011;653;51.480;11.992;2023-03-04T09:04:01;11.97;;;5.50;;
1320;SDS011;653;51.480;11.992;2023-03-04T09:06:27;11.47;;;5.93;;
1320;SDS011;653;51.480;11.992;2023-03-04T09:08:55;12.97;;;6.07;;
1320;SDS011;653;51.480;11.992;2023-03-04T09:11:22;14.07;;;5.20;;
1320;SDS011;653;51.480;11.992;2023-03-04T09:13:50;13.33;;;5.83;;
1320;SDS011;653;51.480;11.992;2023-03-04T09:16:17;7.83;;;4.90;;
1320;SDS011;653;51.480;11.992;2023-03-04T09:18:43;9.57;;;4.50;;
1320;SDS011;653;51.480;11.992;2023-03-04T09:21:09;12.10;;;5.33;;
1320;SDS011;653;51.480;11.992;2023-03-04T09:23:35;10.60;;;4.60;;
1320;SDS011;653;51.480;11.992;2023-03-04T09:26:11;14.20;;;5.03;;
1320;SDS011;653;51.480;11.992;2023-03-04T09:29:01;15.17;;;5.40;;
1320;SDS011;653;51.480;11.992;2023-03-04T09:31:28;14.00;;;5.80;;
1320;SDS011;653;51.480;11.992;2023-03-04T09:33:57;11.43;;;4.70;;
1320;SDS011;653;51.480;11.992;2023-03-04T09:36:23;8.90;;;4.77;;
1320;SDS011;653;51.480;11.992;2023-03-04T09:38:48;9.80;;;5.50;;
1320;SDS011;653;51.480;11.992;2023-03-04T09:41:14;9.47;;;4.97;;
1320;SDS011;653;51.480;11.992;2023-03-04T09:43:44;12.20;;;5.20;;
1320;SDS011;653;51.480;11.992;2023-03-04T09:49:08;8.03;;;4.73;;
1320;SDS011;653;51.480;11.992;2023-03-04T09:55:13;7.00;;;4.40;;
1320;SDS011;653;51.480;11.992;2023-03-04T09:57:50;11.00;;;5.70;;
1320;SDS011;653;51.480;11.992;2023-03-04T10:00:38;15.83;;;5.30;;
1320;SDS011;653;51.480;11.992;2023-03-04T10:03:19;12.67;;;3.27;;
1320;SDS011;653;51.480;11.992;2023-03-04T10:08:29;9.70;;;4.17;;
1320;SDS011;653;51.480;11.992;2023-03-04T10:10:57;6.97;;;4.00;;
1320;SDS011;653;51.480;11.992;2023-03-04T10:13:49;6.80;;;3.50;;
1320;SDS011;653;51.480;11.992;2023-03-04T10:17:19;11.20;;;4.33;;
1320;SDS011;653;51.480;11.992;2023-03-04T10:19:51;8.20;;;3.00;;
1320;SDS011;653;51.480;11.992;2023-03-04T10:22:46;7.07;;;3.97;;
1320;SDS011;653;51.480;11.992;2023-03-04T10:25:20;9.13;;;3.50;;
1320;SDS011;653;51.480;11.992;2023-03-04T10:33:23;7.53;;;3.27;;
1320;SDS011;653;51.480;11.992;2023-03-04T10:36:14;8.27;;;2.83;;
1320;SDS011;653;51.480;11.992;2023-03-04T10:38:51;6.13;;;3.30;;
1320;SDS011;653;51.480;11.992;2023-03-04T10:41:22;4.63;;;2.80;;
1320;SDS011;653;51.480;11.992;2023-03-04T10:46:51;6.93;;;3.70;;
1320;SDS011;653;51.480;11.992;2023-03-04T10:49:19;4.87;;;2.87;;
1320;SDS011;653;51.480;11.992;2023-03-04T10:52:02;7.67;;;3.20;;
1320;SDS011;653;51.480;11.992;2023-03-04T10:54:50;6.67;;;3.57;;
1320;SDS011;653;51.480;11.992;2023-03-04T10:57:18;5.83;;;3.27;;
1320;SDS011;653;51.480;11.992;2023-03-04T11:02:29;7.30;;;2.97;;
1320;SDS011;653;51.480;11.992;2023-03-04T11:07:53;5.13;;;2.53;;
1320;SDS011;653;51.480;11.992;2023-03-04T11:10:29;3.17;;;2.40;;
1320;SDS011;653;51.480;11.992;2023-03-04T11:13:16;5.67;;;2.33;;
1320;SDS011;653;51.480;11.992;2023-03-04T11:15:58;6.00;;;1.73;;
1320;SDS011;653;51.480;11.992;2023-03-04T11:18:39;4.63;;;2.30;;
1320;SDS011;653;51.480;11.992;2023-03-04T11:21:19;4.50;;;2.63;;
1320;SDS011;653;51.480;11.992;2023-03-04T11:24:03;4.37;;;3.07;;
1320;SDS011;653;51.480;11.992;2023-03-04T11:26:39;6.53;;;3.70;;
1320;SDS011;653;51.480;11.992;2023-03-04T11:29:23;4.20;;;3.00;;
1320;SDS011;653;51.480;11.992;2023-03-04T11:37:50;5.10;;;3.27;;
1320;SDS011;653;51.480;11.992;2023-03-04T11:40:28;4.43;;;3.40;;
1320;SDS011;653;51.480;11.992;2023-03-04T11:42:59;5.13;;;3.57;;
1320;SDS011;653;51.480;11.992;2023-03-04T11:51:12;3.13;;;1.87;;
1320;SDS011;653;51.480;11.992;2023-03-04T11:56:35;5.93;;;2.40;;
1320;SDS011;653;51.480;11.992;2023-03-04T12:04:49;3.77;;;2.20;;
1320;SDS011;653;51.480;11.992;2023-03-04T12:11:51;3.70;;;2.07;;
1320;SDS011;653;51.480;11.992;2023-03-04T12:16:47;4.03;;;2.50;;
1320;SDS011;653;51.480;11.992;2023-03-04T12:22:44;6.03;;;2.77;;
1320;SDS011;653;51.480;11.992;2023-03-04T12:51:57;2.70;;;1.73;;
1320;SDS011;653;51.480;11.992;2023-03-04T12:54:43;3.50;;;1.77;;
1320;SDS011;653;51.480;11.992;2023-03-04T12:57:15;2.90;;;1.80;;
1320;SDS011;653;51.480;11.992;2023-03-04T13:11:03;3.67;;;2.80;;
1320;SDS011;653;51.480;11.992;2023-03-04T13:22:32;5.17;;;4.53;;
1320;SDS011;653;51.480;11.992;2023-03-04T13:28:11;7.90;;;4.87;;
1320;SDS011;653;51.480;11.992;2023-03-04T13:30:41;7.10;;;5.20;;
1320;SDS011;653;51.480;11.992;2023-03-04T13:38:36;7.63;;;4.03;;
1320;SDS011;653;51.480;11.992;2023-03-04T13:43:52;4.40;;;3.33;;
1320;SDS011;653;51.480;11.992;2023-03-04T13:51:38;5.73;;;2.50;;
1320;SDS011;653;51.480;11.992;2023-03-04T13:59:45;6.00;;;2.73;;
1320;SDS011;653;51.480;11.992;2023-03-04T14:02:23;6.53;;;3.17;;
1320;SDS011;653;51.480;11.992;2023-03-04T14:04:57;9.13;;;3.90;;
1320;SDS011;653;51.480;11.992;2023-03-04T14:12:43;7.80;;;3.57;;
1320;SDS011;653;51.480;11.992;2023-03-04T14:17:45;5.53;;;3.27;;
1320;SDS011;653;51.480;11.992;2023-03-04T14:26:11;8.47;;;5.10;;
1320;SDS011;653;51.480;11.992;2023-03-04T14:28:46;12.00;;;5.13;;
1320;SDS011;653;51.480;11.992;2023-03-04T14:31:18;7.77;;;4.37;;
1320;SDS011;653;51.480;11.992;2023-03-04T14:34:00;7.83;;;4.90;;
1320;SDS011;653;51.480;11.992;2023-03-04T14:36:28;9.00;;;5.00;;
1320;SDS011;653;51.480;11.992;2023-03-04T14:39:00;9.20;;;4.60;;
1320;SDS011;653;51.480;11.992;2023-03-04T14:41:46;6.57;;;4.80;;
1320;SDS011;653;51.480;11.992;2023-03-04T14:46:57;5.57;;;3.20;;
1320;SDS011;653;51.480;11.992;2023-03-04T14:49:29;7.10;;;4.40;;
1320;SDS011;653;51.480;11.992;2023-03-04T14:51:54;8.63;;;3.90;;
1320;SDS011;653;51.480;11.992;2023-03-04T14:54:25;10.40;;;3.90;;
1320;SDS011;653;51.480;11.992;2023-03-04T14:56:59;4.87;;;2.73;;
1320;SDS011;653;51.480;11.992;2023-03-04T14:59:31;6.93;;;2.90;;
1320;SDS011;653;51.480;11.992;2023-03-04T15:04:57;4.40;;;3.00;;
1320;SDS011;653;51.480;11.992;2023-03-04T15:07:30;6.10;;;2.47;;
1320;SDS011;653;51.480;11.992;2023-03-04T15:09:58;4.30;;;2.37;;
1320;SDS011;653;51.480;11.992;2023-03-04T15:12:30;5.40;;;1.97;;
1320;SDS011;653;51.480;11.992;2023-03-04T15:14:59;4.50;;;2.07;;
1320;SDS011;653;51.480;11.992;2023-03-04T15:17:34;3.87;;;2.00;;
1320;SDS011;653;51.480;11.992;2023-03-04T15:25:21;4.30;;;1.77;;
1320;SDS011;653;51.480;11.992;2023-03-04T15:27:47;5.60;;;2.37;;
1320;SDS011;653;51.480;11.992;2023-03-04T15:30:28;4.90;;;1.83;;
1320;SDS011;653;51.480;11.992;2023-03-04T15:32:59;4.80;;;1.93;;
1320;SDS011;653;51.480;11.992;2023-03-04T15:35:30;6.43;;;2.13;;
1320;SDS011;653;51.480;11.992;2023-03-04T15:37:58;6.37;;;2.40;;
1320;SDS011;653;51.480;11.992;2023-03-04T15:40:31;4.63;;;1.80;;
1320;SDS011;653;51.480;11.992;2023-03-04T15:43:00;4.87;;;2.47;;
1320;SDS011;653;51.480;11.992;2023-03-04T15:45:30;7.33;;;2.77;;
1320;SDS011;653;51.480;11.992;2023-03-04T15:48:02;5.20;;;2.60;;
1320;SDS011;653;51.480;11.992;2023-03-04T15:50:34;7.77;;;2.63;;
1320;SDS011;653;51.480;11.992;2023-03-04T15:53:04;7.77;;;2.70;;
1320;SDS011;653;51.480;11.992;2023-03-04T15:55:38;4.50;;;1.60;;
1320;SDS011;653;51.480;11.992;2023-03-04T15:58:05;3.70;;;2.10;;
1320;SDS011;653;51.480;11.992;2023-03-04T16:00:32;6.57;;;2.20;;
1320;SDS011;653;51.480;11.992;2023-03-04T16:02:58;5.57;;;2.67;;
1320;SDS011;653;51.480;11.992;2023-03-04T16:05:26;10.63;;;2.20;;
1320;SDS011;653;51.480;11.992;2023-03-04T16:07:51;4.43;;;2.00;;
1320;SDS011;653;51.480;11.992;2023-03-04T16:10:29;4.10;;;2.17;;
1320;SDS011;653;51.480;11.992;2023-03-04T16:12:56;8.27;;;2.03;;
1320;SDS011;653;51.480;11.992;2023-03-04T16:15:23;8.30;;;2.20;;
1320;SDS011;653;51.480;11.992;2023-03-04T16:17:52;6.33;;;2.73;;
1320;SDS011;653;51.480;11.992;2023-03-04T16:20:20;5.23;;;1.90;;
1320;SDS011;653;51.480;11.992;2023-03-04T16:22:57;14.20;;;4.00;;
1320;SDS011;653;51.480;11.992;2023-03-04T16:25:27;4.37;;;1.60;;
1320;SDS011;653;51.480;11.992;2023-03-04T16:27:54;16.57;;;3.60;;
1320;SDS011;653;51.480;11.992;2023-03-04T16:30:36;7.87;;;2.50;;
1320;SDS011;653;51.480;11.992;2023-03-04T16:33:02;8.53;;;2.60;;
1320;SDS011;653;51.480;11.992;2023-03-04T16:35:35;5.33;;;2.23;;
1320;SDS011;653;51.480;11.992;2023-03-04T16:38:03;4.60;;;2.23;;
1320;SDS011;653;51.480;11.992;2023-03-04T16:40:32;6.10;;;2.50;;
1320;SDS011;653;51.480;11.992;2023-03-04T16:42:57;6.40;;;1.77;;
1320;SDS011;653;51.480;11.992;2023-03-04T16:45:25;3.77;;;1.83;;
1320;SDS011;653;51.480;11.992;2023-03-04T16:47:52;13.43;;;4.50;;
1320;SDS011;653;51.480;11.992;2023-03-04T16:50:20;8.80;;;2.00;;
1320;SDS011;653;51.480;11.992;2023-03-04T16:52:51;4.17;;;1.97;;
1320;SDS011;653;51.480;11.992;2023-03-04T16:55:19;3.03;;;1.73;;
1320;SDS011;653;51.480;11.992;2023-03-04T16:57:49;2.67;;;1.10;;
1320;SDS011;653;51.480;11.992;2023-03-04T17:00:18;4.20;;;1.70;;
1320;SDS011;653;51.480;11.992;2023-03-04T17:02:47;12.57;;;2.80;;
1320;SDS011;653;51.480;11.992;2023-03-04T17:05:26;5.67;;;2.20;;
1320;SDS011;653;51.480;11.992;2023-03-04T17:07:55;4.70;;;2.30;;
1320;SDS011;653;51.480;11.992;2023-03-04T17:10:21;8.10;;;2.37;;
1320;SDS011;653;51.480;11.992;2023-03-04T17:12:49;6.73;;;2.00;;
1320;SDS011;653;51.480;11.992;2023-03-04T17:15:15;5.73;;;1.70;;
1320;SDS011;653;51.480;11.992;2023-03-04T17:17:41;8.07;;;2.57;;
1320;SDS011;653;51.480;11.992;2023-03-04T17:20:10;5.70;;;2.00;;
1320;SDS011;653;51.480;11.992;2023-03-04T17:22:40;4.43;;;1.67;;
1320;SDS011;653;51.480;11.992;2023-03-04T17:25:08;7.30;;;2.03;;
1320;SDS011;653;51.480;11.992;2023-03-04T17:27:36;8.40;;;2.90;;
1320;SDS011;653;51.480;11.992;2023-03-04T17:30:03;3.70;;;2.00;;
1320;SDS011;653;51.480;11.992;2023-03-04T17:32:34;6.80;;;3.20;;
1320;SDS011;653;51.480;11.992;2023-03-04T17:35:01;4.43;;;2.13;;
1320;SDS011;653;51.480;11.992;2023-03-04T17:37:29;7.73;;;2.27;;
1320;SDS011;653;51.480;11.992;2023-03-04T17:39:56;8.83;;;3.47;;
1320;SDS011;653;51.480;11.992;2023-03-04T17:42:23;7.23;;;2.50;;
1320;SDS011;653;51.480;11.992;2023-03-04T17:44:48;7.83;;;2.47;;